sensor_id;sensor_type;location;lat;lon;timestamp;temperature;humidity
4896;DHT22;2463;49.948;8.472;2023-10-31T00:00:10;13.80;99.90
4896;DHT22;2463;49.948;8.472;2023-10-31T00:02:38;13.70;99.90
4896;DHT22;2463;49.948;8.472;2023-10-31T00:05:06;13.70;99.90
4896;DHT22;2463;49.948;8.472;2023-10-31T00:07:32;13.70;99.90
4896;DHT22;2463;49.948;8.472;2023-10-31T00:09:59;13.60;99.90
4896;DHT22;2463;49.948;8.472;2023-10-31T00:12:26;13.60;99.90
4896;DHT22;2463;49.948;8.472;2023-10-31T00:14:52;13.60;99.90
4896;DHT22;2463;49.948;8.472;2023-10-31T00:17:19;13.50;99.90
4896;DHT22;2463;49.948;8.472;2023-10-31T00:19:46;13.50;99.90
4896;DHT22;2463;49.948;8.472;2023-10-31T00:22:13;13.40;99.90
4896;DHT22;2463;49.948;8.472;2023-10-31T00:24:39;13.40;99.90
4896;DHT22;2463;49.948;8.472;2023-10-31T00:27:06;13.30;99.90
4896;DHT22;2463;49.948;8.472;2023-10-31T00:29:32;13.20;99.90
4896;DHT22;2463;49.948;8.472;2023-10-31T00:31:59;13.20;99.90
4896;DHT22;2463;49.948;8.472;2023-10-31T00:34:26;13.10;99.90
4896;DHT22;2463;49.948;8.472;2023-10-31T00:36:52;13.10;99.90
4896;DHT22;2463;49.948;8.472;2023-10-31T00:39:19;13.10;99.90
4896;DHT22;2463;49.948;8.472;2023-10-31T00:41:46;13.10;99.90
4896;DHT22;2463;49.948;8.472;2023-10-31T00:44:13;13.10;99.90
4896;DHT22;2463;49.948;8.472;2023-10-31T00:46:40;13.10;99.90
4896;DHT22;2463;49.948;8.472;2023-10-31T00:49:06;13.00;99.90
4896;DHT22;2463;49.948;8.472;2023-10-31T00:51:34;13.00;99.90
4896;DHT22;2463;49.948;8.472;2023-10-31T00:54:01;13.00;99.90
4896;DHT22;2463;49.948;8.472;2023-10-31T00:56:27;13.00;99.90
4896;DHT22;2463;49.948;8.472;2023-10-31T00:58:54;13.00;99.90
4896;DHT22;2463;49.948;8.472;2023-10-31T01:01:21;13.00;99.90
4896;DHT22;2463;49.948;8.472;2023-10-31T01:03:47;12.90;99.90
4896;DHT22;2463;49.948;8.472;2023-10-31T01:06:14;12.90;99.90
4896;DHT22;2463;49.948;8.472;2023-10-31T01:08:40;12.90;99.90
4896;DHT22;2463;49.948;8.472;2023-10-31T01:11:07;12.80;99.90
4896;DHT22;2463;49.948;8.472;2023-10-31T01:13:34;12.80;99.90
4896;DHT22;2463;49.948;8.472;2023-10-31T01:16:01;12.80;99.90
4896;DHT22;2463;49.948;8.472;2023-10-31T01:18:27;12.80;99.90
4896;DHT22;2463;49.948;8.472;2023-10-31T01:20:54;12.80;99.90
4896;DHT22;2463;49.948;8.472;2023-10-31T01:23:20;12.80;99.90
4896;DHT22;2463;49.948;8.472;2023-10-31T01:25:47;12.70;99.90
4896;DHT22;2463;49.948;8.472;2023-10-31T01:28:14;12.70;99.90
4896;DHT22;2463;49.948;8.472;2023-10-31T01:30:40;12.70;99.90
4896;DHT22;2463;49.948;8.472;2023-10-31T01:33:07;12.60;99.90
4896;DHT22;2463;49.948;8.472;2023-10-31T01:35:34;12.60;99.90
4896;DHT22;2463;49.948;8.472;2023-10-31T01:38:01;12.60;99.90
4896;DHT22;2463;49.948;8.472;2023-10-31T01:40:27;12.50;99.90
4896;DHT22;2463;49.948;8.472;2023-10-31T01:42:55;12.50;99.90
4896;DHT22;2463;49.948;8.472;2023-10-31T01:45:22;12.50;99.90
4896;DHT22;2463;49.948;8.472;2023-10-31T01:47:49;12.40;99.90
4896;DHT22;2463;49.948;8.472;2023-10-31T01:50:18;12.40;99.90
4896;DHT22;2463;49.948;8.472;2023-10-31T01:52:45;12.40;99.90
4896;DHT22;2463;49.948;8.472;2023-10-31T01:55:13;12.40;99.90
4896;DHT22;2463;49.948;8.472;2023-10-31T01:57:40;12.30;99.90
4896;DHT22;2463;49.948;8.472;2023-10-31T02:00:08;12.30;99.90
4896;DHT22;2463;49.948;8.472;2023-10-31T02:02:36;12.20;99.90
4896;DHT22;2463;49.948;8.472;2023-10-31T02:05:04;12.20;99.90
4896;DHT22;2463;49.948;8.472;2023-10-31T02:07:31;12.10;99.90
4896;DHT22;2463;49.948;8.472;2023-10-31T02:09:58;13.30;99.90
4896;DHT22;2463;49.948;8.472;2023-10-31T02:12:34;12.10;99.90
4896;DHT22;2463;49.948;8.472;2023-10-31T02:15:02;12.00;99.90
4896;DHT22;2463;49.948;8.472;2023-10-31T02:17:30;12.00;99.90
4896;DHT22;2463;49.948;8.472;2023-10-31T02:19:57;12.00;99.90
4896;DHT22;2463;49.948;8.472;2023-10-31T02:22:24;12.00;99.90
4896;DHT22;2463;49.948;8.472;2023-10-31T02:24:50;12.00;99.90
4896;DHT22;2463;49.948;8.472;2023-10-31T02:27:17;12.00;99.90
4896;DHT22;2463;49.948;8.472;2023-10-31T02:29:44;11.90;99.90
4896;DHT22;2463;49.948;8.472;2023-10-31T02:32:10;12.00;99.90
4896;DHT22;2463;49.948;8.472;2023-10-31T02:34:37;11.90;99.90
4896;DHT22;2463;49.948;8.472;2023-10-31T02:37:04;11.90;99.90
4896;DHT22;2463;49.948;8.472;2023-10-31T02:39:32;11.90;99.90
4896;DHT22;2463;49.948;8.472;2023-10-31T02:41:58;11.90;99.90
4896;DHT22;2463;49.948;8.472;2023-10-31T02:44:25;11.80;99.90
4896;DHT22;2463;49.948;8.472;2023-10-31T02:46:52;11.80;99.90
4896;DHT22;2463;49.948;8.472;2023-10-31T02:49:18;11.70;99.90
4896;DHT22;2463;49.948;8.472;2023-10-31T02:51:45;11.70;99.90
4896;DHT22;2463;49.948;8.472;2023-10-31T02:54:12;11.70;99.90
4896;DHT22;2463;49.948;8.472;2023-10-31T02:56:38;11.70;99.90
4896;DHT22;2463;49.948;8.472;2023-10-31T02:59:05;11.60;99.90
4896;DHT22;2463;49.948;8.472;2023-10-31T03:01:32;11.60;99.90
4896;DHT22;2463;49.948;8.472;2023-10-31T03:03:59;11.60;99.90
4896;DHT22;2463;49.948;8.472;2023-10-31T03:06:25;11.60;99.90
4896;DHT22;2463;49.948;8.472;2023-10-31T03:08:52;11.50;99.90
4896;DHT22;2463;49.948;8.472;2023-10-31T03:11:26;11.50;99.90
4896;DHT22;2463;49.948;8.472;2023-10-31T03:13:53;11.50;99.90
4896;DHT22;2463;49.948;8.472;2023-10-31T03:16:20;11.40;99.90
4896;DHT22;2463;49.948;8.472;2023-10-31T03:18:48;11.40;99.90
4896;DHT22;2463;49.948;8.472;2023-10-31T03:21:14;11.40;99.90
4896;DHT22;2463;49.948;8.472;2023-10-31T03:23:43;11.40;99.90
4896;DHT22;2463;49.948;8.472;2023-10-31T03:26:12;11.40;99.90
4896;DHT22;2463;49.948;8.472;2023-10-31T03:28:39;11.40;99.90
4896;DHT22;2463;49.948;8.472;2023-10-31T03:31:06;11.40;99.90
4896;DHT22;2463;49.948;8.472;2023-10-31T03:33:32;11.40;99.90
4896;DHT22;2463;49.948;8.472;2023-10-31T03:35:59;11.30;99.90
4896;DHT22;2463;49.948;8.472;2023-10-31T03:38:25;11.30;99.90
4896;DHT22;2463;49.948;8.472;2023-10-31T03:40:53;11.30;99.90
4896;DHT22;2463;49.948;8.472;2023-10-31T03:43:19;11.30;99.90
4896;DHT22;2463;49.948;8.472;2023-10-31T03:45:46;11.40;99.90
4896;DHT22;2463;49.948;8.472;2023-10-31T03:48:16;11.40;99.90
4896;DHT22;2463;49.948;8.472;2023-10-31T03:50:43;11.40;99.90
4896;DHT22;2463;49.948;8.472;2023-10-31T03:53:10;11.40;99.90
4896;DHT22;2463;49.948;8.472;2023-10-31T03:55:37;11.40;99.90
4896;DHT22;2463;49.948;8.472;2023-10-31T03:58:04;11.40;99.90
4896;DHT22;2463;49.948;8.472;2023-10-31T04:00:30;11.50;99.90
4896;DHT22;2463;49.948;8.472;2023-10-31T04:02:57;11.40;99.90
4896;DHT22;2463;49.948;8.472;2023-10-31T04:05:24;11.50;99.90
4896;DHT22;2463;49.948;8.472;2023-10-31T04:07:51;11.50;99.90
4896;DHT22;2463;49.948;8.472;2023-10-31T04:10:18;11.50;99.90
4896;DHT22;2463;49.948;8.472;2023-10-31T04:12:45;11.60;99.90
4896;DHT22;2463;49.948;8.472;2023-10-31T04:15:12;11.60;99.90
4896;DHT22;2463;49.948;8.472;2023-10-31T04:17:38;11.60;99.90
4896;DHT22;2463;49.948;8.472;2023-10-31T04:20:06;11.60;99.90
4896;DHT22;2463;49.948;8.472;2023-10-31T04:22:32;11.60;99.90
4896;DHT22;2463;49.948;8.472;2023-10-31T04:24:59;11.70;99.90
4896;DHT22;2463;49.948;8.472;2023-10-31T04:27:26;11.70;99.90
4896;DHT22;2463;49.948;8.472;2023-10-31T04:29:52;11.70;99.90
4896;DHT22;2463;49.948;8.472;2023-10-31T04:32:19;11.70;99.90
4896;DHT22;2463;49.948;8.472;2023-10-31T04:34:46;11.70;99.90
4896;DHT22;2463;49.948;8.472;2023-10-31T04:37:12;11.80;99.90
4896;DHT22;2463;49.948;8.472;2023-10-31T04:39:39;11.80;99.90
4896;DHT22;2463;49.948;8.472;2023-10-31T04:42:06;11.90;99.90
4896;DHT22;2463;49.948;8.472;2023-10-31T04:44:32;11.90;99.90
4896;DHT22;2463;49.948;8.472;2023-10-31T04:46:59;11.90;99.90
4896;DHT22;2463;49.948;8.472;2023-10-31T04:49:26;11.90;99.90
4896;DHT22;2463;49.948;8.472;2023-10-31T04:51:53;11.90;99.90
4896;DHT22;2463;49.948;8.472;2023-10-31T04:54:19;11.90;99.90
4896;DHT22;2463;49.948;8.472;2023-10-31T04:56:47;11.90;99.90
4896;DHT22;2463;49.948;8.472;2023-10-31T04:59:14;11.90;99.90
4896;DHT22;2463;49.948;8.472;2023-10-31T05:01:40;11.90;99.90
4896;DHT22;2463;49.948;8.472;2023-10-31T05:04:07;11.90;99.90
4896;DHT22;2463;49.948;8.472;2023-10-31T05:06:39;11.90;99.90
4896;DHT22;2463;49.948;8.472;2023-10-31T05:09:05;11.90;99.90
4896;DHT22;2463;49.948;8.472;2023-10-31T05:11:33;12.00;99.90
4896;DHT22;2463;49.948;8.472;2023-10-31T05:14:00;12.00;99.90
4896;DHT22;2463;49.948;8.472;2023-10-31T05:16:26;12.00;99.90
4896;DHT22;2463;49.948;8.472;2023-10-31T05:18:53;12.00;99.90
4896;DHT22;2463;49.948;8.472;2023-10-31T05:21:20;12.00;99.90
4896;DHT22;2463;49.948;8.472;2023-10-31T05:23:47;12.00;99.90
4896;DHT22;2463;49.948;8.472;2023-10-31T05:26:13;12.00;99.90
4896;DHT22;2463;49.948;8.472;2023-10-31T05:28:40;12.00;99.90
4896;DHT22;2463;49.948;8.472;2023-10-31T05:31:07;12.00;99.90
4896;DHT22;2463;49.948;8.472;2023-10-31T05:33:34;12.00;99.90
4896;DHT22;2463;49.948;8.472;2023-10-31T05:36:01;12.00;99.90
4896;DHT22;2463;49.948;8.472;2023-10-31T05:38:28;12.00;99.90
4896;DHT22;2463;49.948;8.472;2023-10-31T05:40:55;12.10;99.90
4896;DHT22;2463;49.948;8.472;2023-10-31T05:43:21;12.10;99.90
4896;DHT22;2463;49.948;8.472;2023-10-31T05:45:48;12.10;99.90
4896;DHT22;2463;49.948;8.472;2023-10-31T05:48:15;12.10;99.90
4896;DHT22;2463;49.948;8.472;2023-10-31T05:50:42;12.00;99.90
4896;DHT22;2463;49.948;8.472;2023-10-31T05:53:09;12.10;99.90
4896;DHT22;2463;49.948;8.472;2023-10-31T05:55:39;12.10;99.90
4896;DHT22;2463;49.948;8.472;2023-10-31T05:58:06;12.10;99.90
4896;DHT22;2463;49.948;8.472;2023-10-31T06:00:32;12.10;99.90
4896;DHT22;2463;49.948;8.472;2023-10-31T06:02:59;12.10;99.90
4896;DHT22;2463;49.948;8.472;2023-10-31T06:05:26;12.10;99.90
4896;DHT22;2463;49.948;8.472;2023-10-31T06:07:52;12.10;99.90
4896;DHT22;2463;49.948;8.472;2023-10-31T06:10:19;12.20;99.90
4896;DHT22;2463;49.948;8.472;2023-10-31T06:12:47;12.20;99.90
4896;DHT22;2463;49.948;8.472;2023-10-31T06:15:14;12.20;99.90
4896;DHT22;2463;49.948;8.472;2023-10-31T06:17:40;12.20;99.90
4896;DHT22;2463;49.948;8.472;2023-10-31T06:20:08;12.20;99.90
4896;DHT22;2463;49.948;8.472;2023-10-31T06:22:35;12.10;99.90
4896;DHT22;2463;49.948;8.472;2023-10-31T06:25:02;12.10;99.90
4896;DHT22;2463;49.948;8.472;2023-10-31T06:27:29;12.10;99.90
4896;DHT22;2463;49.948;8.472;2023-10-31T06:29:55;12.10;99.90
4896;DHT22;2463;49.948;8.472;2023-10-31T06:32:42;12.20;99.90
4896;DHT22;2463;49.948;8.472;2023-10-31T06:35:08;12.20;99.90
4896;DHT22;2463;49.948;8.472;2023-10-31T06:37:35;12.20;99.90
4896;DHT22;2463;49.948;8.472;2023-10-31T06:40:04;12.20;99.90
4896;DHT22;2463;49.948;8.472;2023-10-31T06:42:31;12.20;99.90
4896;DHT22;2463;49.948;8.472;2023-10-31T06:44:57;12.20;99.90
4896;DHT22;2463;49.948;8.472;2023-10-31T06:47:24;12.10;99.90
4896;DHT22;2463;49.948;8.472;2023-10-31T06:49:51;12.10;99.90
4896;DHT22;2463;49.948;8.472;2023-10-31T06:52:17;12.10;99.90
4896;DHT22;2463;49.948;8.472;2023-10-31T06:54:44;12.10;99.90
4896;DHT22;2463;49.948;8.472;2023-10-31T06:57:11;12.10;99.90
4896;DHT22;2463;49.948;8.472;2023-10-31T06:59:37;12.10;99.90
4896;DHT22;2463;49.948;8.472;2023-10-31T07:02:04;12.00;99.90
4896;DHT22;2463;49.948;8.472;2023-10-31T07:04:31;12.00;99.90
4896;DHT22;2463;49.948;8.472;2023-10-31T07:06:58;12.00;99.90
4896;DHT22;2463;49.948;8.472;2023-10-31T07:09:26;12.00;99.90
4896;DHT22;2463;49.948;8.472;2023-10-31T07:11:53;12.00;99.90
4896;DHT22;2463;49.948;8.472;2023-10-31T07:14:20;12.00;99.90
4896;DHT22;2463;49.948;8.472;2023-10-31T07:16:47;12.00;99.90
4896;DHT22;2463;49.948;8.472;2023-10-31T07:19:15;12.10;99.90
4896;DHT22;2463;49.948;8.472;2023-10-31T07:21:42;11.90;99.90
4896;DHT22;2463;49.948;8.472;2023-10-31T07:24:09;11.90;99.90
4896;DHT22;2463;49.948;8.472;2023-10-31T07:26:35;11.90;99.90
4896;DHT22;2463;49.948;8.472;2023-10-31T07:29:02;11.90;99.90
4896;DHT22;2463;49.948;8.472;2023-10-31T07:31:29;11.90;99.90
4896;DHT22;2463;49.948;8.472;2023-10-31T07:33:56;11.90;99.90
4896;DHT22;2463;49.948;8.472;2023-10-31T07:36:22;11.90;99.90
4896;DHT22;2463;49.948;8.472;2023-10-31T07:38:49;11.90;99.90
4896;DHT22;2463;49.948;8.472;2023-10-31T07:41:16;11.90;99.90
4896;DHT22;2463;49.948;8.472;2023-10-31T07:43:43;11.90;99.90
4896;DHT22;2463;49.948;8.472;2023-10-31T07:46:09;11.90;99.90
4896;DHT22;2463;49.948;8.472;2023-10-31T07:48:36;11.90;99.90
4896;DHT22;2463;49.948;8.472;2023-10-31T07:51:03;11.90;99.90
4896;DHT22;2463;49.948;8.472;2023-10-31T07:53:30;12.00;99.90
4896;DHT22;2463;49.948;8.472;2023-10-31T07:55:57;12.00;99.90
4896;DHT22;2463;49.948;8.472;2023-10-31T07:58:23;12.00;99.90
4896;DHT22;2463;49.948;8.472;2023-10-31T08:00:50;12.10;99.90
4896;DHT22;2463;49.948;8.472;2023-10-31T08:03:17;12.10;99.90
4896;DHT22;2463;49.948;8.472;2023-10-31T08:05:43;12.10;99.90
4896;DHT22;2463;49.948;8.472;2023-10-31T08:08:10;12.20;99.90
4896;DHT22;2463;49.948;8.472;2023-10-31T08:10:37;12.20;99.90
4896;DHT22;2463;49.948;8.472;2023-10-31T08:13:03;12.20;99.90
4896;DHT22;2463;49.948;8.472;2023-10-31T08:15:30;12.30;99.90
4896;DHT22;2463;49.948;8.472;2023-10-31T08:17:57;12.30;99.90
4896;DHT22;2463;49.948;8.472;2023-10-31T08:20:23;12.30;99.90
4896;DHT22;2463;49.948;8.472;2023-10-31T08:22:50;12.30;99.90
4896;DHT22;2463;49.948;8.472;2023-10-31T08:25:17;12.30;99.90
4896;DHT22;2463;49.948;8.472;2023-10-31T08:27:43;12.40;99.90
4896;DHT22;2463;49.948;8.472;2023-10-31T08:30:10;12.50;99.90
4896;DHT22;2463;49.948;8.472;2023-10-31T08:32:37;12.50;99.90
4896;DHT22;2463;49.948;8.472;2023-10-31T08:35:04;12.50;99.90
4896;DHT22;2463;49.948;8.472;2023-10-31T08:37:31;12.60;99.90
4896;DHT22;2463;49.948;8.472;2023-10-31T08:39:58;12.70;99.90
4896;DHT22;2463;49.948;8.472;2023-10-31T08:42:24;12.70;99.90
4896;DHT22;2463;49.948;8.472;2023-10-31T08:44:51;12.80;99.90
4896;DHT22;2463;49.948;8.472;2023-10-31T08:47:17;12.80;99.90
4896;DHT22;2463;49.948;8.472;2023-10-31T08:49:45;12.80;99.90
4896;DHT22;2463;49.948;8.472;2023-10-31T08:52:12;12.90;99.90
4896;DHT22;2463;49.948;8.472;2023-10-31T08:54:38;13.00;99.90
4896;DHT22;2463;49.948;8.472;2023-10-31T08:57:05;13.00;99.90
4896;DHT22;2463;49.948;8.472;2023-10-31T08:59:31;13.00;99.90
4896;DHT22;2463;49.948;8.472;2023-10-31T09:01:58;13.00;99.90
4896;DHT22;2463;49.948;8.472;2023-10-31T09:04:25;13.00;99.90
4896;DHT22;2463;49.948;8.472;2023-10-31T09:06:51;13.10;99.90
4896;DHT22;2463;49.948;8.472;2023-10-31T09:09:18;13.20;99.90
4896;DHT22;2463;49.948;8.472;2023-10-31T09:11:45;13.20;99.90
4896;DHT22;2463;49.948;8.472;2023-10-31T09:14:11;13.20;99.90
4896;DHT22;2463;49.948;8.472;2023-10-31T09:16:38;13.30;99.90
4896;DHT22;2463;49.948;8.472;2023-10-31T09:19:05;13.40;99.90
4896;DHT22;2463;49.948;8.472;2023-10-31T09:21:31;13.50;99.90
4896;DHT22;2463;49.948;8.472;2023-10-31T09:23:58;13.50;99.90
4896;DHT22;2463;49.948;8.472;2023-10-31T09:26:25;13.50;99.90
4896;DHT22;2463;49.948;8.472;2023-10-31T09:28:51;13.50;99.90
4896;DHT22;2463;49.948;8.472;2023-10-31T09:31:18;13.60;99.90
4896;DHT22;2463;49.948;8.472;2023-10-31T09:33:46;13.60;99.90
4896;DHT22;2463;49.948;8.472;2023-10-31T09:36:13;13.70;99.90
4896;DHT22;2463;49.948;8.472;2023-10-31T09:38:40;13.80;99.90
4896;DHT22;2463;49.948;8.472;2023-10-31T09:41:07;13.70;99.90
4896;DHT22;2463;49.948;8.472;2023-10-31T09:43:34;13.70;99.90
4896;DHT22;2463;49.948;8.472;2023-10-31T09:46:01;13.70;99.90
4896;DHT22;2463;49.948;8.472;2023-10-31T09:48:29;13.70;99.90
4896;DHT22;2463;49.948;8.472;2023-10-31T09:50:55;13.70;99.90
4896;DHT22;2463;49.948;8.472;2023-10-31T09:53:24;13.70;99.90
4896;DHT22;2463;49.948;8.472;2023-10-31T09:55:51;13.70;99.90
4896;DHT22;2463;49.948;8.472;2023-10-31T09:58:20;13.70;99.90
4896;DHT22;2463;49.948;8.472;2023-10-31T10:00:47;13.80;99.90
4896;DHT22;2463;49.948;8.472;2023-10-31T10:03:15;13.80;99.90
4896;DHT22;2463;49.948;8.472;2023-10-31T10:05:44;13.90;99.90
4896;DHT22;2463;49.948;8.472;2023-10-31T10:08:11;14.00;99.90
4896;DHT22;2463;49.948;8.472;2023-10-31T10:10:38;14.00;99.90
4896;DHT22;2463;49.948;8.472;2023-10-31T10:13:05;14.00;99.90
4896;DHT22;2463;49.948;8.472;2023-10-31T10:15:46;14.00;99.90
4896;DHT22;2463;49.948;8.472;2023-10-31T10:18:28;14.00;99.90
4896;DHT22;2463;49.948;8.472;2023-10-31T10:20:57;14.10;99.90
4896;DHT22;2463;49.948;8.472;2023-10-31T10:23:25;14.20;99.90
4896;DHT22;2463;49.948;8.472;2023-10-31T10:25:53;14.30;99.90
4896;DHT22;2463;49.948;8.472;2023-10-31T10:28:20;14.40;99.90
4896;DHT22;2463;49.948;8.472;2023-10-31T10:30:51;14.50;99.90
4896;DHT22;2463;49.948;8.472;2023-10-31T10:33:18;14.50;99.90
4896;DHT22;2463;49.948;8.472;2023-10-31T10:35:45;14.60;99.90
4896;DHT22;2463;49.948;8.472;2023-10-31T10:38:14;14.80;99.90
4896;DHT22;2463;49.948;8.472;2023-10-31T10:40:42;15.00;99.90
4896;DHT22;2463;49.948;8.472;2023-10-31T10:43:22;15.20;99.90
4896;DHT22;2463;49.948;8.472;2023-10-31T10:45:53;15.50;99.90
4896;DHT22;2463;49.948;8.472;2023-10-31T10:48:26;15.70;99.90
4896;DHT22;2463;49.948;8.472;2023-10-31T10:51:13;15.90;99.90
4896;DHT22;2463;49.948;8.472;2023-10-31T10:53:55;15.90;99.90
4896;DHT22;2463;49.948;8.472;2023-10-31T10:56:28;16.00;99.90
4896;DHT22;2463;49.948;8.472;2023-10-31T10:59:18;16.00;99.90
4896;DHT22;2463;49.948;8.472;2023-10-31T11:01:47;15.90;99.90
4896;DHT22;2463;49.948;8.472;2023-10-31T11:04:16;15.90;99.90
4896;DHT22;2463;49.948;8.472;2023-10-31T11:06:44;16.00;99.90
4896;DHT22;2463;49.948;8.472;2023-10-31T11:09:11;15.90;99.90
4896;DHT22;2463;49.948;8.472;2023-10-31T11:11:39;15.90;99.90
4896;DHT22;2463;49.948;8.472;2023-10-31T11:14:07;15.90;99.90
4896;DHT22;2463;49.948;8.472;2023-10-31T11:16:44;15.90;99.90
4896;DHT22;2463;49.948;8.472;2023-10-31T11:19:12;16.10;99.90
4896;DHT22;2463;49.948;8.472;2023-10-31T11:21:59;16.20;99.90
4896;DHT22;2463;49.948;8.472;2023-10-31T11:24:31;16.40;99.90
4896;DHT22;2463;49.948;8.472;2023-10-31T11:27:03;16.40;99.90
4896;DHT22;2463;49.948;8.472;2023-10-31T11:29:31;16.50;99.90
4896;DHT22;2463;49.948;8.472;2023-10-31T11:31:58;16.80;99.90
4896;DHT22;2463;49.948;8.472;2023-10-31T11:34:30;17.00;99.90
4896;DHT22;2463;49.948;8.472;2023-10-31T11:40:15;17.40;99.90
4896;DHT22;2463;49.948;8.472;2023-10-31T11:42:42;17.50;99.90
4896;DHT22;2463;49.948;8.472;2023-10-31T11:45:09;17.40;99.90
4896;DHT22;2463;49.948;8.472;2023-10-31T11:47:49;17.60;99.90
4896;DHT22;2463;49.948;8.472;2023-10-31T11:50:16;17.80;99.90
4896;DHT22;2463;49.948;8.472;2023-10-31T11:53:02;18.10;99.90
4896;DHT22;2463;49.948;8.472;2023-10-31T11:55:32;18.30;99.90
4896;DHT22;2463;49.948;8.472;2023-10-31T11:58:24;18.50;99.90
4896;DHT22;2463;49.948;8.472;2023-10-31T12:00:56;18.60;99.90
4896;DHT22;2463;49.948;8.472;2023-10-31T12:03:27;18.70;99.90
4896;DHT22;2463;49.948;8.472;2023-10-31T12:05:58;18.90;99.90
4896;DHT22;2463;49.948;8.472;2023-10-31T12:08:32;18.90;99.90
4896;DHT22;2463;49.948;8.472;2023-10-31T12:11:13;19.10;99.90
4896;DHT22;2463;49.948;8.472;2023-10-31T12:14:02;19.20;99.90
4896;DHT22;2463;49.948;8.472;2023-10-31T12:16:31;19.20;99.90
4896;DHT22;2463;49.948;8.472;2023-10-31T12:19:05;19.30;99.90
4896;DHT22;2463;49.948;8.472;2023-10-31T12:24:09;19.60;99.90
4896;DHT22;2463;49.948;8.472;2023-10-31T12:26:36;19.70;99.90
4896;DHT22;2463;49.948;8.472;2023-10-31T12:29:11;19.80;99.90
4896;DHT22;2463;49.948;8.472;2023-10-31T12:31:48;19.80;99.90
4896;DHT22;2463;49.948;8.472;2023-10-31T12:34:16;19.90;99.90
4896;DHT22;2463;49.948;8.472;2023-10-31T12:36:44;19.90;99.90
4896;DHT22;2463;49.948;8.472;2023-10-31T12:39:12;19.90;99.90
4896;DHT22;2463;49.948;8.472;2023-10-31T12:41:40;20.00;99.90
4896;DHT22;2463;49.948;8.472;2023-10-31T12:44:08;20.10;99.90
4896;DHT22;2463;49.948;8.472;2023-10-31T12:46:41;20.20;99.90
4896;DHT22;2463;49.948;8.472;2023-10-31T12:49:11;20.10;99.90
4896;DHT22;2463;49.948;8.472;2023-10-31T12:51:55;20.00;99.90
4896;DHT22;2463;49.948;8.472;2023-10-31T12:54:31;19.80;99.90
4896;DHT22;2463;49.948;8.472;2023-10-31T12:57:03;19.50;99.90
4896;DHT22;2463;49.948;8.472;2023-10-31T12:59:32;19.40;99.90
4896;DHT22;2463;49.948;8.472;2023-10-31T13:01:59;19.50;99.90
4896;DHT22;2463;49.948;8.472;2023-10-31T13:04:30;19.50;99.90
4896;DHT22;2463;49.948;8.472;2023-10-31T13:09:29;19.30;99.90
4896;DHT22;2463;49.948;8.472;2023-10-31T13:12:04;19.20;99.90
4896;DHT22;2463;49.948;8.472;2023-10-31T13:14:31;19.00;99.90
4896;DHT22;2463;49.948;8.472;2023-10-31T13:16:59;19.00;99.90
4896;DHT22;2463;49.948;8.472;2023-10-31T13:19:26;19.10;99.90
4896;DHT22;2463;49.948;8.472;2023-10-31T13:21:52;19.30;99.90
4896;DHT22;2463;49.948;8.472;2023-10-31T13:24:21;19.40;99.90
4896;DHT22;2463;49.948;8.472;2023-10-31T13:26:48;19.50;99.90
4896;DHT22;2463;49.948;8.472;2023-10-31T13:29:19;19.60;99.90
4896;DHT22;2463;49.948;8.472;2023-10-31T13:31:46;19.70;99.90
4896;DHT22;2463;49.948;8.472;2023-10-31T13:34:13;19.80;99.90
4896;DHT22;2463;49.948;8.472;2023-10-31T13:36:40;19.80;99.90
4896;DHT22;2463;49.948;8.472;2023-10-31T13:39:07;19.80;99.90
4896;DHT22;2463;49.948;8.472;2023-10-31T13:41:35;19.70;99.90
4896;DHT22;2463;49.948;8.472;2023-10-31T13:44:01;19.60;99.90
4896;DHT22;2463;49.948;8.472;2023-10-31T13:46:30;19.60;99.90
4896;DHT22;2463;49.948;8.472;2023-10-31T13:48:56;19.40;99.90
4896;DHT22;2463;49.948;8.472;2023-10-31T13:51:23;19.30;99.90
4896;DHT22;2463;49.948;8.472;2023-10-31T13:53:49;19.10;99.90
4896;DHT22;2463;49.948;8.472;2023-10-31T13:56:16;19.00;99.90
4896;DHT22;2463;49.948;8.472;2023-10-31T13:58:44;19.00;99.90
4896;DHT22;2463;49.948;8.472;2023-10-31T14:01:11;18.90;99.90
4896;DHT22;2463;49.948;8.472;2023-10-31T14:03:37;18.80;99.90
4896;DHT22;2463;49.948;8.472;2023-10-31T14:06:05;18.80;99.90
4896;DHT22;2463;49.948;8.472;2023-10-31T14:08:32;18.80;99.90
4896;DHT22;2463;49.948;8.472;2023-10-31T14:10:58;18.80;99.90
4896;DHT22;2463;49.948;8.472;2023-10-31T14:13:25;18.70;99.90
4896;DHT22;2463;49.948;8.472;2023-10-31T14:15:52;18.70;99.90
4896;DHT22;2463;49.948;8.472;2023-10-31T14:18:18;18.50;99.90
4896;DHT22;2463;49.948;8.472;2023-10-31T14:20:45;18.40;99.90
4896;DHT22;2463;49.948;8.472;2023-10-31T14:23:12;18.30;99.90
4896;DHT22;2463;49.948;8.472;2023-10-31T14:25:39;18.20;99.90
4896;DHT22;2463;49.948;8.472;2023-10-31T14:28:07;18.20;99.90
4896;DHT22;2463;49.948;8.472;2023-10-31T14:30:34;18.10;99.90
4896;DHT22;2463;49.948;8.472;2023-10-31T14:33:01;18.10;99.90
4896;DHT22;2463;49.948;8.472;2023-10-31T14:35:27;18.20;99.90
4896;DHT22;2463;49.948;8.472;2023-10-31T14:37:54;18.50;99.90
4896;DHT22;2463;49.948;8.472;2023-10-31T14:40:21;18.30;99.90
4896;DHT22;2463;49.948;8.472;2023-10-31T14:42:47;18.10;99.90
4896;DHT22;2463;49.948;8.472;2023-10-31T14:45:15;17.90;99.90
4896;DHT22;2463;49.948;8.472;2023-10-31T14:47:42;17.70;99.90
4896;DHT22;2463;49.948;8.472;2023-10-31T14:50:09;17.50;99.90
4896;DHT22;2463;49.948;8.472;2023-10-31T14:52:36;17.20;99.90
4896;DHT22;2463;49.948;8.472;2023-10-31T14:55:03;17.00;99.90
4896;DHT22;2463;49.948;8.472;2023-10-31T14:57:29;16.70;99.90
4896;DHT22;2463;49.948;8.472;2023-10-31T14:59:56;16.50;99.90
4896;DHT22;2463;49.948;8.472;2023-10-31T15:02:23;16.40;99.90
4896;DHT22;2463;49.948;8.472;2023-10-31T15:04:50;16.20;99.90
4896;DHT22;2463;49.948;8.472;2023-10-31T15:07:17;16.10;99.90
4896;DHT22;2463;49.948;8.472;2023-10-31T15:09:45;16.00;99.90
4896;DHT22;2463;49.948;8.472;2023-10-31T15:12:12;15.90;99.90
4896;DHT22;2463;49.948;8.472;2023-10-31T15:14:39;15.80;99.90
4896;DHT22;2463;49.948;8.472;2023-10-31T15:17:06;15.80;99.90
4896;DHT22;2463;49.948;8.472;2023-10-31T15:19:32;18.10;99.90
4896;DHT22;2463;49.948;8.472;2023-10-31T15:21:59;15.70;99.90
4896;DHT22;2463;49.948;8.472;2023-10-31T15:24:26;15.50;99.90
4896;DHT22;2463;49.948;8.472;2023-10-31T15:26:57;15.40;99.90
4896;DHT22;2463;49.948;8.472;2023-10-31T15:29:23;15.30;99.90
4896;DHT22;2463;49.948;8.472;2023-10-31T15:31:50;15.30;99.90
4896;DHT22;2463;49.948;8.472;2023-10-31T15:34:21;15.20;99.90
4896;DHT22;2463;49.948;8.472;2023-10-31T15:36:48;15.10;99.90
4896;DHT22;2463;49.948;8.472;2023-10-31T15:39:15;15.10;99.90
4896;DHT22;2463;49.948;8.472;2023-10-31T15:41:42;15.20;99.90
4896;DHT22;2463;49.948;8.472;2023-10-31T15:44:09;15.30;99.90
4896;DHT22;2463;49.948;8.472;2023-10-31T15:46:35;15.40;99.90
4896;DHT22;2463;49.948;8.472;2023-10-31T15:49:04;15.40;99.90
4896;DHT22;2463;49.948;8.472;2023-10-31T15:51:30;15.30;99.90
4896;DHT22;2463;49.948;8.472;2023-10-31T15:53:58;15.30;99.90
4896;DHT22;2463;49.948;8.472;2023-10-31T15:56:25;15.20;99.90
4896;DHT22;2463;49.948;8.472;2023-10-31T15:58:52;15.10;99.90
4896;DHT22;2463;49.948;8.472;2023-10-31T16:01:18;15.10;99.90
4896;DHT22;2463;49.948;8.472;2023-10-31T16:03:45;15.00;99.90
4896;DHT22;2463;49.948;8.472;2023-10-31T16:06:12;14.90;99.90
4896;DHT22;2463;49.948;8.472;2023-10-31T16:08:38;14.90;99.90
4896;DHT22;2463;49.948;8.472;2023-10-31T16:11:07;14.90;99.90
4896;DHT22;2463;49.948;8.472;2023-10-31T16:13:33;14.80;99.90